createdAt,value
2023-05-18T00:02:06.163Z,9.40
2023-05-18T00:04:35.099Z,14.80
2023-05-18T00:07:04.984Z,1.00
2023-05-18T00:09:35.659Z,1.00
2023-05-18T00:12:05.086Z,1.00
2023-05-18T00:14:32.331Z,14.30
2023-05-18T00:17:01.975Z,36.50
2023-05-18T00:19:30.169Z,46.00
2023-05-18T00:21:58.101Z,61.20
2023-05-18T00:24:25.600Z,62.00
2023-05-18T00:26:56.448Z,86.40
2023-05-18T00:29:23.502Z,90.60
2023-05-18T00:31:51.308Z,71.10
2023-05-18T00:34:18.474Z,68.90
2023-05-18T00:36:46.100Z,61.10
2023-05-18T00:39:13.217Z,48.50
2023-05-18T00:41:40.894Z,47.90
2023-05-18T00:44:08.058Z,68.70
2023-05-18T00:46:35.735Z,99.90
2023-05-18T00:49:03.050Z,99.90
2023-05-18T00:51:33.184Z,99.90
2023-05-18T00:54:03.636Z,99.90
2023-05-18T00:56:34.160Z,1.00
2023-05-18T00:59:03.306Z,1.00
2023-05-18T01:01:37.097Z,1.00
2023-05-18T01:04:04.917Z,6.20
2023-05-18T01:06:35.624Z,30.70
2023-05-18T01:09:04.430Z,57.90
2023-05-18T01:11:52.386Z,51.30
2023-05-18T01:14:49.857Z,60.30
2023-05-18T01:17:40.256Z,1.00
2023-05-18T01:20:16.727Z,1.00
2023-05-18T01:22:56.525Z,1.00
2023-05-18T01:25:47.694Z,1.00
2023-05-18T01:28:20.410Z,1.00
2023-05-18T01:30:48.634Z,1.00
2023-05-18T01:33:16.528Z,1.00
2023-05-18T01:35:48.599Z,1.00
2023-05-18T01:38:24.393Z,1.00
2023-05-18T01:40:57.781Z,1.00
2023-05-18T01:43:33.268Z,1.00
2023-05-18T01:46:12.125Z,3.40
2023-05-18T01:48:42.569Z,99.90
2023-05-18T01:51:13.986Z,1.00
2023-05-18T01:53:52.984Z,1.00
2023-05-18T01:56:21.930Z,42.70
2023-05-18T01:58:49.967Z,71.60
2023-05-18T02:01:20.240Z,99.90
2023-05-18T02:03:47.910Z,1.00
2023-05-18T02:06:15.111Z,99.90
2023-05-18T02:08:43.367Z,99.90
2023-05-18T02:11:10.638Z,1.00
2023-05-18T02:13:37.954Z,2.90
2023-05-18T02:16:05.371Z,78.20
2023-05-18T02:18:36.468Z,99.90
2023-05-18T02:21:04.342Z,99.90
2023-05-18T02:23:32.365Z,99.90
2023-05-18T02:25:59.418Z,99.90
2023-05-18T02:28:27.172Z,99.90
2023-05-18T02:30:54.172Z,99.90
2023-05-18T02:33:26.403Z,99.90
2023-05-18T02:35:54.315Z,99.90
2023-05-18T02:38:21.872Z,99.90
2023-05-18T02:40:48.928Z,99.90
2023-05-18T02:43:16.306Z,99.90
2023-05-18T02:45:43.322Z,99.90
2023-05-18T02:48:11.144Z,99.90
2023-05-18T02:50:38.165Z,99.90
2023-05-18T02:53:05.554Z,99.90
2023-05-18T02:55:32.751Z,99.90
2023-05-18T02:58:00.630Z,99.90
2023-05-18T03:00:29.595Z,1.00
2023-05-18T03:02:57.897Z,1.00
2023-05-18T03:05:25.003Z,1.00
2023-05-18T03:07:54.384Z,1.00
2023-05-18T03:10:22.291Z,1.00
2023-05-18T03:12:49.792Z,1.00
2023-05-18T03:15:16.796Z,1.00
2023-05-18T03:17:44.717Z,1.00
2023-05-18T03:20:14.326Z,1.00
2023-05-18T03:22:42.016Z,1.00
2023-05-18T03:25:09.117Z,1.00
2023-05-18T03:27:37.940Z,1.00
2023-05-18T03:30:05.662Z,1.00
2023-05-18T03:32:34.047Z,1.00
2023-05-18T03:35:02.055Z,1.00
2023-05-18T03:37:29.650Z,1.00
2023-05-18T03:40:08.205Z,1.00
2023-05-18T03:42:35.820Z,1.00
2023-05-18T03:45:03.033Z,1.00
2023-05-18T03:47:30.345Z,1.00
2023-05-18T03:49:57.406Z,1.00
2023-05-18T03:52:24.791Z,1.00
2023-05-18T03:54:52.228Z,1.00
2023-05-18T03:57:19.819Z,99.90
2023-05-18T03:59:46.951Z,99.90
2023-05-18T04:02:16.693Z,99.90
2023-05-18T04:04:46.037Z,99.90
2023-05-18T04:07:18.054Z,99.90
2023-05-18T04:09:45.197Z,99.90
2023-05-18T04:12:12.558Z,99.90
2023-05-18T04:14:42.261Z,99.90
2023-05-18T04:17:10.267Z,99.90
2023-05-18T04:19:38.214Z,99.90
2023-05-18T04:22:08.151Z,99.90
2023-05-18T04:24:35.443Z,99.90
2023-05-18T04:27:03.502Z,99.90
2023-05-18T04:29:30.744Z,99.90
2023-05-18T04:32:01.469Z,99.90
2023-05-18T04:34:29.587Z,99.90
2023-05-18T04:37:00.832Z,68.90
2023-05-18T04:39:27.922Z,1.00
2023-05-18T04:41:58.362Z,1.00
2023-05-18T04:44:27.568Z,99.90
2023-05-18T04:46:55.744Z,99.90
2023-05-18T04:49:23.470Z,99.90
2023-05-18T04:51:55.740Z,99.90
2023-05-18T04:54:28.347Z,47.40
2023-05-18T04:56:56.165Z,1.00
2023-05-18T04:59:26.315Z,1.00
2023-05-18T05:01:53.817Z,99.90
2023-05-18T05:04:23.989Z,99.90
2023-05-18T05:06:51.356Z,1.10
2023-05-18T05:09:18.405Z,99.90
2023-05-18T05:11:45.711Z,1.00
2023-05-18T05:14:13.083Z,99.90
2023-05-18T05:16:40.510Z,1.00
2023-05-18T05:19:07.580Z,26.30
2023-05-18T05:21:34.959Z,1.00
2023-05-18T05:24:05.056Z,99.90
2023-05-18T05:26:32.880Z,1.00
2023-05-18T05:29:00.013Z,99.90
2023-05-18T05:31:27.493Z,99.90
2023-05-18T05:33:54.612Z,1.00
2023-05-18T05:36:21.910Z,99.90
2023-05-18T05:38:49.045Z,1.00
2023-05-18T05:41:16.911Z,99.90
2023-05-18T05:43:43.935Z,1.00
2023-05-18T05:46:11.511Z,1.00
2023-05-18T05:48:38.501Z,1.00
2023-05-18T05:51:06.103Z,99.90
2023-05-18T05:53:33.426Z,1.00
2023-05-18T05:56:01.074Z,99.90
2023-05-18T05:58:28.060Z,99.90
2023-05-18T06:00:55.399Z,1.00
2023-05-18T06:03:22.535Z,99.90
2023-05-18T06:05:50.003Z,1.00
2023-05-18T06:08:17.286Z,1.00
2023-05-18T06:10:44.994Z,99.90
2023-05-18T06:13:12.178Z,99.90
2023-05-18T06:15:40.537Z,99.90
2023-05-18T06:18:07.846Z,99.90
2023-05-18T06:20:35.541Z,1.00
2023-05-18T06:23:02.627Z,71.90
2023-05-18T06:25:30.420Z,1.00
2023-05-18T06:27:57.728Z,99.90
2023-05-18T06:30:25.074Z,99.90
2023-05-18T06:32:52.101Z,99.90
2023-05-18T06:35:19.894Z,99.90
2023-05-18T06:37:47.189Z,94.10
2023-05-18T06:40:14.461Z,99.90
2023-05-18T06:42:41.447Z,1.00
2023-05-18T06:45:09.060Z,98.30
2023-05-18T06:47:36.170Z,99.90
2023-05-18T06:50:04.268Z,99.90
2023-05-18T06:52:31.551Z,99.90
2023-05-18T06:55:01.417Z,99.90
2023-05-18T06:57:28.501Z,99.90
2023-05-18T06:59:56.124Z,99.90
2023-05-18T07:02:23.432Z,99.90
2023-05-18T07:04:50.913Z,99.90
2023-05-18T07:07:18.146Z,99.60
2023-05-18T07:09:46.281Z,98.50
2023-05-18T07:12:13.399Z,94.10
2023-05-18T07:14:40.948Z,94.60
2023-05-18T07:17:08.085Z,93.80
2023-05-18T07:19:35.585Z,94.00
2023-05-18T07:22:04.531Z,92.50
2023-05-18T07:24:32.094Z,93.20
2023-05-18T07:27:00.890Z,89.30
2023-05-18T07:29:29.478Z,89.30
2023-05-18T07:31:57.010Z,91.10
2023-05-18T07:34:26.913Z,90.70
2023-05-18T07:36:54.350Z,91.00
2023-05-18T07:39:28.547Z,89.90
2023-05-18T07:41:56.834Z,85.70
2023-05-18T07:44:25.257Z,89.70
2023-05-18T07:46:52.534Z,86.20
2023-05-18T07:49:20.371Z,89.50
2023-05-18T07:51:47.747Z,91.10
2023-05-18T07:54:16.024Z,90.70
2023-05-18T07:56:44.380Z,90.20
2023-05-18T07:59:12.434Z,86.80
2023-05-18T08:01:40.078Z,86.50
2023-05-18T08:04:08.128Z,90.10
2023-05-18T08:06:35.335Z,89.70
2023-05-18T08:09:02.880Z,86.30
2023-05-18T08:11:30.140Z,87.00
2023-05-18T08:13:57.733Z,83.00
2023-05-18T08:16:24.936Z,84.10
2023-05-18T08:18:53.089Z,82.90
2023-05-18T08:21:20.334Z,75.80
2023-05-18T08:23:48.260Z,73.70
2023-05-18T08:26:15.593Z,71.30
2023-05-18T08:28:45.428Z,74.80
2023-05-18T08:31:12.967Z,73.70
2023-05-18T08:33:40.860Z,75.60
2023-05-18T08:36:08.994Z,72.50
2023-05-18T08:38:36.577Z,69.40
2023-05-18T08:41:23.011Z,70.30
2023-05-18T08:43:59.313Z,68.20
2023-05-18T08:46:34.313Z,71.40
2023-05-18T08:49:03.642Z,75.50
2023-05-18T08:51:35.058Z,69.10
2023-05-18T08:54:04.088Z,71.40
2023-05-18T08:56:33.932Z,70.90
2023-05-18T08:59:08.065Z,69.20
2023-05-18T09:01:36.050Z,68.70
2023-05-18T09:04:04.332Z,69.50
2023-05-18T09:06:34.252Z,69.60
2023-05-18T09:09:06.698Z,67.60
2023-05-18T09:11:35.472Z,67.70
2023-05-18T09:14:03.562Z,68.50
2023-05-18T09:16:31.131Z,68.30
2023-05-18T09:18:58.581Z,68.00
2023-05-18T09:21:26.376Z,67.30
2023-05-18T09:23:54.358Z,67.10
2023-05-18T09:26:22.562Z,66.50
2023-05-18T09:28:52.776Z,62.30
2023-05-18T09:31:21.731Z,68.50
2023-05-18T09:33:51.641Z,65.90
2023-05-18T09:36:25.284Z,67.40
2023-05-18T09:38:53.810Z,71.90
2023-05-18T09:41:21.890Z,77.30
2023-05-18T09:43:51.534Z,76.30
2023-05-18T09:46:21.139Z,73.50
2023-05-18T09:48:54.200Z,71.30
2023-05-18T09:51:25.220Z,70.90
2023-05-18T09:53:58.183Z,64.60
2023-05-18T09:56:27.033Z,56.90
2023-05-18T09:58:55.325Z,58.20
2023-05-18T10:01:23.113Z,59.10
2023-05-18T10:03:50.668Z,61.90
2023-05-18T10:06:20.133Z,61.80
2023-05-18T10:08:47.803Z,57.80
2023-05-18T10:11:18.559Z,58.80
2023-05-18T10:13:47.076Z,59.00
2023-05-18T10:16:15.797Z,57.10
2023-05-18T10:18:43.545Z,57.30
2023-05-18T10:21:12.717Z,61.20
2023-05-18T10:23:41.613Z,56.80
2023-05-18T10:26:10.010Z,55.70
2023-05-18T10:28:50.488Z,55.90
2023-05-18T10:31:18.306Z,54.10
2023-05-18T10:33:46.941Z,57.70
2023-05-18T10:36:17.479Z,61.90
2023-05-18T10:38:46.815Z,62.80
2023-05-18T10:41:15.228Z,61.30
2023-05-18T10:43:43.873Z,59.40
2023-05-18T10:46:11.903Z,58.70
2023-05-18T10:48:40.949Z,58.20
2023-05-18T10:51:08.438Z,56.40
2023-05-18T10:53:37.710Z,56.20
2023-05-18T10:56:04.980Z,57.30
2023-05-18T10:58:33.422Z,54.20
2023-05-18T11:01:03.228Z,57.10
2023-05-18T11:03:32.881Z,55.20
2023-05-18T11:06:08.278Z,14.50
2023-05-18T11:08:43.756Z,26.10
2023-05-18T11:11:10.886Z,26.90
2023-05-18T11:13:44.514Z,48.60
2023-05-18T11:16:11.666Z,36.70
2023-05-18T11:18:41.061Z,56.50
2023-05-18T11:21:32.517Z,55.20
2023-05-18T11:24:32.308Z,52.10
2023-05-18T11:27:16.483Z,50.90
2023-05-18T11:29:50.646Z,68.30
2023-05-18T11:32:30.669Z,70.20
2023-05-18T11:35:00.099Z,73.60
2023-05-18T11:37:39.136Z,75.10
2023-05-18T11:40:11.551Z,78.20
2023-05-18T11:42:38.947Z,62.80
2023-05-18T11:45:11.585Z,94.40
2023-05-18T11:47:41.170Z,98.80
2023-05-18T11:50:12.458Z,94.40
2023-05-18T11:52:48.195Z,94.70
2023-05-18T11:55:18.028Z,90.40
2023-05-18T11:57:47.818Z,96.90
2023-05-18T12:00:16.398Z,99.50
2023-05-18T12:02:48.291Z,99.90
2023-05-18T12:05:16.413Z,93.70
2023-05-18T12:07:44.839Z,97.30
2023-05-18T12:10:17.714Z,92.70
2023-05-18T12:12:49.169Z,93.50
2023-05-18T12:15:17.386Z,96.80
2023-05-18T12:17:46.168Z,94.30
2023-05-18T12:20:19.295Z,93.00
2023-05-18T12:22:52.735Z,99.90
2023-05-18T12:25:23.336Z,90.20
2023-05-18T12:27:52.340Z,92.80
2023-05-18T12:30:20.929Z,94.20
2023-05-18T12:32:50.854Z,93.40
2023-05-18T12:35:25.828Z,95.40
2023-05-18T12:37:55.994Z,90.00
2023-05-18T12:40:23.653Z,99.90
2023-05-18T12:43:01.144Z,95.60
2023-05-18T12:45:32.212Z,99.90
2023-05-18T12:48:10.583Z,99.90
2023-05-18T12:50:53.029Z,99.90
2023-05-18T12:53:20.200Z,93.50
2023-05-18T12:56:00.022Z,95.50
2023-05-18T12:58:27.146Z,96.50
2023-05-18T13:00:54.891Z,97.30
2023-05-18T13:03:22.763Z,94.00
2023-05-18T13:06:07.445Z,94.50
2023-05-18T13:08:35.793Z,99.90
2023-05-18T13:11:12.860Z,97.40
2023-05-18T13:13:58.476Z,99.90
2023-05-18T13:16:26.716Z,99.90
2023-05-18T13:19:02.069Z,99.90
2023-05-18T13:21:30.100Z,99.90
2023-05-18T13:23:57.226Z,99.90
2023-05-18T13:26:25.403Z,99.90
2023-05-18T13:28:54.130Z,99.90
2023-05-18T13:31:22.641Z,98.60
2023-05-18T13:33:50.731Z,99.90
2023-05-18T13:36:18.796Z,99.90
2023-05-18T13:38:46.120Z,99.90
2023-05-18T13:41:15.345Z,99.90
2023-05-18T13:43:42.950Z,99.90
2023-05-18T13:46:10.787Z,99.90
2023-05-18T13:48:37.890Z,99.90
2023-05-18T13:51:05.339Z,99.90
2023-05-18T13:53:32.615Z,99.90
2023-05-18T13:55:59.853Z,99.90
2023-05-18T13:58:26.851Z,99.90
2023-05-18T14:00:54.853Z,99.90
2023-05-18T14:03:22.205Z,97.80
2023-05-18T14:05:49.760Z,96.60
2023-05-18T14:08:16.856Z,99.40
2023-05-18T14:10:44.577Z,99.90
2023-05-18T14:13:11.691Z,99.90
2023-05-18T14:15:39.198Z,99.90
2023-05-18T14:18:06.370Z,99.90
2023-05-18T14:20:34.197Z,99.90
2023-05-18T14:23:03.619Z,99.90
2023-05-18T14:25:32.158Z,99.90
2023-05-18T14:27:59.312Z,99.90
2023-05-18T14:30:26.942Z,99.90
2023-05-18T14:32:54.055Z,99.90
2023-05-18T14:35:21.786Z,99.90
2023-05-18T14:37:48.840Z,99.90
2023-05-18T14:40:16.477Z,99.90
2023-05-18T14:42:43.587Z,99.90
2023-05-18T14:45:11.063Z,99.90
2023-05-18T14:47:38.167Z,99.90
2023-05-18T14:50:08.182Z,99.90
2023-05-18T14:52:35.845Z,99.90
2023-05-18T14:55:03.705Z,99.90
2023-05-18T14:57:30.822Z,99.90
2023-05-18T15:14:30.866Z,99.90
2023-05-18T15:16:58.877Z,1.00
2023-05-18T15:19:26.175Z,1.00
2023-05-18T15:21:53.481Z,1.00
2023-05-18T15:24:20.458Z,1.00
2023-05-18T15:26:47.866Z,1.00
2023-05-18T15:29:14.932Z,35.90
2023-05-18T15:31:42.260Z,77.90
2023-05-18T15:34:09.321Z,89.00
2023-05-18T15:36:37.777Z,93.90
2023-05-18T15:39:05.275Z,96.20
2023-05-18T15:41:34.319Z,99.90
2023-05-18T15:44:01.998Z,99.90
2023-05-18T15:53:59.656Z,99.90
2023-05-18T15:56:27.501Z,99.90
2023-05-18T15:58:54.514Z,99.90
2023-05-18T16:01:22.057Z,99.90
2023-05-18T16:03:49.266Z,99.90
2023-05-18T16:06:17.608Z,99.90
2023-05-18T16:08:46.116Z,99.90
2023-05-18T16:11:13.578Z,99.90
2023-05-18T16:13:40.779Z,99.90
2023-05-18T16:16:10.399Z,99.90
2023-05-18T16:18:37.600Z,99.90
2023-05-18T16:21:05.066Z,99.90
2023-05-18T16:23:32.126Z,99.90
2023-05-18T16:26:00.232Z,99.90
2023-05-18T16:28:27.285Z,99.90
2023-05-18T16:30:54.555Z,99.90
2023-05-18T16:33:21.559Z,99.90
2023-05-18T16:35:48.936Z,99.90
2023-05-18T16:38:16.754Z,99.90
2023-05-18T16:40:44.119Z,99.90
2023-05-18T16:43:11.085Z,99.90
2023-05-18T16:45:38.362Z,99.90
2023-05-18T16:48:05.597Z,1.00
2023-05-18T16:50:33.479Z,1.00
2023-05-18T16:53:01.043Z,1.00
2023-05-18T18:35:14.833Z,99.90
2023-05-18T18:37:42.794Z,99.90
2023-05-18T18:40:11.691Z,99.90
2023-05-18T18:42:38.636Z,99.90
2023-05-18T18:45:06.684Z,99.90
2023-05-18T18:47:33.742Z,99.90
2023-05-18T18:50:01.324Z,99.90
2023-05-18T18:52:28.310Z,99.90
2023-05-18T18:54:56.501Z,1.00
2023-05-18T18:57:23.469Z,1.00
2023-05-18T18:59:51.634Z,11.00
2023-05-18T19:02:19.491Z,99.90
2023-05-18T19:04:48.379Z,1.00
2023-05-18T19:07:15.520Z,99.90
2023-05-18T19:09:43.274Z,99.90
2023-05-18T19:12:10.573Z,99.90
2023-05-18T19:14:38.208Z,99.90
2023-05-18T19:17:05.693Z,39.20
2023-05-18T19:19:32.966Z,1.00
2023-05-18T19:22:00.040Z,99.90
2023-05-18T19:24:27.641Z,1.00
2023-05-18T19:26:54.754Z,99.90
2023-05-18T19:29:22.212Z,1.00
2023-05-18T19:31:49.244Z,1.00
2023-05-18T19:34:16.613Z,99.90
2023-05-18T19:36:43.656Z,99.90
2023-05-18T19:39:11.042Z,51.30
2023-05-18T19:41:38.849Z,99.90
2023-05-18T19:44:06.469Z,99.90
2023-05-18T19:46:34.042Z,99.90
2023-05-18T19:49:01.410Z,1.00
2023-05-18T19:51:30.266Z,1.00
2023-05-18T19:53:57.774Z,1.00
2023-05-18T19:56:24.830Z,1.00
2023-05-18T19:58:52.780Z,1.00
2023-05-18T20:01:20.325Z,1.00
2023-05-18T20:03:49.794Z,1.00
2023-05-18T20:06:17.285Z,1.00
2023-05-18T20:08:44.600Z,99.90
2023-05-18T20:11:11.836Z,99.90
2023-05-18T20:13:39.183Z,99.90
2023-05-18T20:16:06.841Z,1.00
2023-05-18T20:18:37.722Z,1.00
2023-05-18T20:21:04.838Z,35.40
2023-05-18T20:23:32.548Z,99.90
2023-05-18T20:25:59.616Z,99.90
2023-05-18T20:28:27.776Z,99.90
2023-05-18T20:30:54.793Z,99.90
2023-05-18T20:33:22.696Z,99.90
2023-05-18T20:35:49.785Z,99.90
2023-05-18T20:38:18.344Z,99.90
2023-05-18T20:40:45.687Z,99.90
2023-05-18T20:43:18.182Z,99.90
2023-05-18T20:45:49.316Z,99.90
2023-05-18T20:48:24.543Z,99.90
2023-05-18T20:50:52.705Z,99.90
2023-05-18T20:53:20.604Z,1.00
2023-05-18T20:55:47.745Z,1.00
2023-05-18T20:58:18.605Z,1.00
2023-05-18T21:00:46.663Z,1.00
2023-05-18T21:03:15.254Z,1.00
2023-05-18T21:05:43.466Z,1.00
2023-05-18T21:08:11.031Z,1.00
2023-05-18T21:10:38.013Z,1.00
2023-05-18T21:13:05.400Z,1.00
2023-05-18T21:15:36.578Z,1.00
2023-05-18T21:18:04.379Z,1.00
2023-05-18T21:20:32.458Z,1.00
2023-05-18T21:22:59.937Z,1.00
2023-05-18T21:25:26.978Z,1.00
2023-05-18T21:27:54.556Z,1.00
2023-05-18T21:30:21.774Z,1.00
2023-05-18T21:32:49.722Z,1.00
2023-05-18T21:35:16.961Z,1.00
2023-05-18T21:37:44.217Z,1.00
2023-05-18T21:40:11.287Z,1.00
2023-05-18T21:42:45.069Z,1.00
2023-05-18T21:45:13.264Z,1.00
2023-05-18T21:47:40.994Z,1.00
2023-05-18T21:50:08.353Z,1.00
2023-05-18T21:52:35.720Z,1.00
2023-05-18T21:55:02.812Z,1.00
2023-05-18T21:57:30.232Z,1.00
2023-05-18T21:59:57.435Z,1.00
2023-05-18T22:02:25.055Z,1.00
2023-05-18T22:04:52.266Z,1.00
2023-05-18T22:07:56.947Z,1.00
2023-05-18T22:10:23.998Z,1.00
2023-05-18T22:13:47.549Z,1.00
2023-05-18T22:16:31.983Z,1.00
2023-05-18T22:18:58.994Z,1.00
2023-05-18T22:21:27.361Z,1.00
2023-05-18T22:23:54.345Z,1.00
2023-05-18T22:26:21.652Z,1.00
2023-05-18T22:28:48.767Z,1.00
2023-05-18T22:31:16.100Z,1.00
2023-05-18T22:33:43.218Z,1.00
2023-05-18T22:36:10.515Z,1.00
2023-05-18T22:38:37.550Z,1.00
2023-05-18T22:41:05.094Z,1.00
2023-05-18T22:43:32.061Z,1.00
2023-05-18T22:45:59.695Z,1.00
2023-05-18T22:48:26.728Z,1.00
2023-05-18T22:50:54.594Z,1.00
2023-05-18T22:53:21.650Z,1.00
2023-05-18T22:55:48.862Z,1.00
2023-05-18T22:58:15.847Z,1.00
2023-05-18T23:00:43.180Z,1.00
2023-05-18T23:03:10.232Z,1.00
2023-05-18T23:05:41.235Z,1.00
2023-05-18T23:08:08.361Z,1.00
2023-05-18T23:10:36.423Z,1.00
2023-05-18T23:13:03.478Z,1.00
2023-05-18T23:15:31.066Z,1.00
2023-05-18T23:17:58.070Z,1.00
2023-05-18T23:20:25.468Z,1.00
2023-05-18T23:22:52.523Z,1.00
2023-05-18T23:25:20.042Z,1.00
2023-05-18T23:27:47.114Z,1.00
2023-05-18T23:30:14.482Z,1.00
2023-05-18T23:32:41.867Z,1.00
2023-05-18T23:35:11.283Z,1.00
2023-05-18T23:37:42.244Z,1.00
2023-05-18T23:40:13.726Z,1.00
2023-05-18T23:42:41.552Z,1.00
2023-05-18T23:50:06.460Z,1.00
2023-05-18T23:52:35.506Z,1.00
2023-05-18T23:55:04.215Z,1.00
2023-05-18T23:57:31.681Z,1.00
2023-05-18T23:59:59.333Z,1.00
